sensor_id;sensor_type;location;lat;lon;timestamp;P1;durP1;ratioP1;P2;durP2;ratioP2
22531;SDS011;11432;46.924;7.114;2023-04-06T00:00:39;8.27;;;4.45;;
22531;SDS011;11432;46.924;7.114;2023-04-06T00:03:05;7.78;;;4.93;;
22531;SDS011;11432;46.924;7.114;2023-04-06T00:05:31;7.47;;;4.63;;
22531;SDS011;11432;46.924;7.114;2023-04-06T00:07:57;7.38;;;4.80;;
22531;SDS011;11432;46.924;7.114;2023-04-06T00:10:23;6.50;;;4.43;;
22531;SDS011;11432;46.924;7.114;2023-04-06T00:12:49;8.20;;;4.75;;
22531;SDS011;11432;46.924;7.114;2023-04-06T00:15:15;7.50;;;4.70;;
22531;SDS011;11432;46.924;7.114;2023-04-06T00:17:41;7.20;;;4.50;;
22531;SDS011;11432;46.924;7.114;2023-04-06T00:20:06;6.88;;;4.38;;
22531;SDS011;11432;46.924;7.114;2023-04-06T00:22:33;6.50;;;4.57;;
22531;SDS011;11432;46.924;7.114;2023-04-06T00:24:58;6.15;;;4.53;;
22531;SDS011;11432;46.924;7.114;2023-04-06T00:27:24;6.20;;;4.30;;
22531;SDS011;11432;46.924;7.114;2023-04-06T00:29:50;6.70;;;4.20;;
22531;SDS011;11432;46.924;7.114;2023-04-06T00:32:15;5.65;;;4.10;;
22531;SDS011;11432;46.924;7.114;2023-04-06T00:34:41;5.70;;;4.47;;
22531;SDS011;11432;46.924;7.114;2023-04-06T00:37:07;6.40;;;4.05;;
22531;SDS011;11432;46.924;7.114;2023-04-06T00:39:32;7.15;;;4.43;;
22531;SDS011;11432;46.924;7.114;2023-04-06T00:41:58;7.90;;;5.00;;
22531;SDS011;11432;46.924;7.114;2023-04-06T00:44:25;6.80;;;4.28;;
22531;SDS011;11432;46.924;7.114;2023-04-06T00:46:51;9.35;;;4.60;;
22531;SDS011;11432;46.924;7.114;2023-04-06T00:49:17;6.25;;;4.38;;
22531;SDS011;11432;46.924;7.114;2023-04-06T00:51:43;6.82;;;4.88;;
22531;SDS011;11432;46.924;7.114;2023-04-06T00:54:09;6.32;;;4.32;;
22531;SDS011;11432;46.924;7.114;2023-04-06T00:56:35;6.65;;;4.63;;
22531;SDS011;11432;46.924;7.114;2023-04-06T00:59:01;9.43;;;4.40;;
22531;SDS011;11432;46.924;7.114;2023-04-06T01:01:26;9.38;;;4.95;;
22531;SDS011;11432;46.924;7.114;2023-04-06T01:03:53;7.38;;;4.35;;
22531;SDS011;11432;46.924;7.114;2023-04-06T01:06:20;8.07;;;5.38;;
22531;SDS011;11432;46.924;7.114;2023-04-06T01:08:45;6.97;;;5.03;;
22531;SDS011;11432;46.924;7.114;2023-04-06T01:11:11;8.98;;;4.75;;
22531;SDS011;11432;46.924;7.114;2023-04-06T01:13:37;7.82;;;4.38;;
22531;SDS011;11432;46.924;7.114;2023-04-06T01:16:02;6.53;;;4.35;;
22531;SDS011;11432;46.924;7.114;2023-04-06T01:18:28;6.25;;;4.38;;
22531;SDS011;11432;46.924;7.114;2023-04-06T01:20:54;7.57;;;4.68;;
22531;SDS011;11432;46.924;7.114;2023-04-06T01:23:20;6.78;;;4.68;;
22531;SDS011;11432;46.924;7.114;2023-04-06T01:25:46;7.95;;;4.57;;
22531;SDS011;11432;46.924;7.114;2023-04-06T01:28:12;7.10;;;4.55;;
22531;SDS011;11432;46.924;7.114;2023-04-06T01:30:38;8.00;;;4.32;;
22531;SDS011;11432;46.924;7.114;2023-04-06T01:33:03;7.13;;;4.47;;
22531;SDS011;11432;46.924;7.114;2023-04-06T01:35:29;6.85;;;4.55;;
22531;SDS011;11432;46.924;7.114;2023-04-06T01:37:55;7.57;;;4.97;;
22531;SDS011;11432;46.924;7.114;2023-04-06T01:40:21;7.38;;;4.72;;
22531;SDS011;11432;46.924;7.114;2023-04-06T01:42:47;5.72;;;4.05;;
22531;SDS011;11432;46.924;7.114;2023-04-06T01:45:12;5.72;;;4.20;;
22531;SDS011;11432;46.924;7.114;2023-04-06T01:47:38;6.55;;;4.25;;
22531;SDS011;11432;46.924;7.114;2023-04-06T01:50:04;5.60;;;4.10;;
22531;SDS011;11432;46.924;7.114;2023-04-06T01:52:31;5.63;;;4.32;;
22531;SDS011;11432;46.924;7.114;2023-04-06T01:54:58;6.82;;;4.40;;
22531;SDS011;11432;46.924;7.114;2023-04-06T01:57:23;7.53;;;5.15;;
22531;SDS011;11432;46.924;7.114;2023-04-06T01:59:50;7.13;;;4.63;;
22531;SDS011;11432;46.924;7.114;2023-04-06T02:02:16;8.93;;;4.68;;
22531;SDS011;11432;46.924;7.114;2023-04-06T02:04:42;7.28;;;4.47;;
22531;SDS011;11432;46.924;7.114;2023-04-06T02:07:07;6.25;;;4.50;;
22531;SDS011;11432;46.924;7.114;2023-04-06T02:09:33;6.95;;;4.45;;
22531;SDS011;11432;46.924;7.114;2023-04-06T02:11:59;5.72;;;4.15;;
22531;SDS011;11432;46.924;7.114;2023-04-06T02:14:26;6.82;;;4.40;;
22531;SDS011;11432;46.924;7.114;2023-04-06T02:16:52;5.07;;;3.90;;
22531;SDS011;11432;46.924;7.114;2023-04-06T02:19:17;5.90;;;3.95;;
22531;SDS011;11432;46.924;7.114;2023-04-06T02:21:43;7.93;;;4.45;;
22531;SDS011;11432;46.924;7.114;2023-04-06T02:24:09;7.20;;;4.13;;
22531;SDS011;11432;46.924;7.114;2023-04-06T02:26:34;6.57;;;4.53;;
22531;SDS011;11432;46.924;7.114;2023-04-06T02:29:00;8.10;;;4.25;;
22531;SDS011;11432;46.924;7.114;2023-04-06T02:31:27;5.57;;;4.20;;
22531;SDS011;11432;46.924;7.114;2023-04-06T02:33:52;6.40;;;4.22;;
22531;SDS011;11432;46.924;7.114;2023-04-06T02:36:18;9.55;;;4.57;;
22531;SDS011;11432;46.924;7.114;2023-04-06T02:38:44;7.35;;;4.10;;
22531;SDS011;11432;46.924;7.114;2023-04-06T02:41:10;7.32;;;4.00;;
22531;SDS011;11432;46.924;7.114;2023-04-06T02:43:35;6.10;;;4.30;;
22531;SDS011;11432;46.924;7.114;2023-04-06T02:46:01;7.47;;;4.32;;
22531;SDS011;11432;46.924;7.114;2023-04-06T02:48:27;5.97;;;4.30;;
22531;SDS011;11432;46.924;7.114;2023-04-06T02:50:52;6.15;;;4.10;;
22531;SDS011;11432;46.924;7.114;2023-04-06T02:53:18;9.20;;;4.85;;
22531;SDS011;11432;46.924;7.114;2023-04-06T02:55:44;7.72;;;3.80;;
22531;SDS011;11432;46.924;7.114;2023-04-06T02:58:09;7.72;;;4.80;;
22531;SDS011;11432;46.924;7.114;2023-04-06T03:00:35;4.93;;;3.80;;
22531;SDS011;11432;46.924;7.114;2023-04-06T03:03:01;5.93;;;4.03;;
22531;SDS011;11432;46.924;7.114;2023-04-06T03:05:27;6.25;;;4.30;;
22531;SDS011;11432;46.924;7.114;2023-04-06T03:07:53;7.43;;;3.90;;
22531;SDS011;11432;46.924;7.114;2023-04-06T03:10:18;8.32;;;4.22;;
22531;SDS011;11432;46.924;7.114;2023-04-06T03:12:44;5.40;;;3.97;;
22531;SDS011;11432;46.924;7.114;2023-04-06T03:15:10;6.50;;;4.22;;
22531;SDS011;11432;46.924;7.114;2023-04-06T03:17:36;8.23;;;4.15;;
22531;SDS011;11432;46.924;7.114;2023-04-06T03:20:02;6.78;;;3.80;;
22531;SDS011;11432;46.924;7.114;2023-04-06T03:22:28;5.40;;;4.00;;
22531;SDS011;11432;46.924;7.114;2023-04-06T03:24:54;6.40;;;4.10;;
22531;SDS011;11432;46.924;7.114;2023-04-06T03:27:20;6.00;;;3.65;;
22531;SDS011;11432;46.924;7.114;2023-04-06T03:29:45;4.93;;;3.67;;
22531;SDS011;11432;46.924;7.114;2023-04-06T03:32:11;5.93;;;4.28;;
22531;SDS011;11432;46.924;7.114;2023-04-06T03:34:37;6.93;;;4.25;;
22531;SDS011;11432;46.924;7.114;2023-04-06T03:37:03;5.90;;;3.95;;
22531;SDS011;11432;46.924;7.114;2023-04-06T03:39:29;6.40;;;3.97;;
22531;SDS011;11432;46.924;7.114;2023-04-06T03:41:55;6.53;;;3.67;;
22531;SDS011;11432;46.924;7.114;2023-04-06T03:44:21;5.80;;;3.88;;
22531;SDS011;11432;46.924;7.114;2023-04-06T03:46:46;5.47;;;3.95;;
22531;SDS011;11432;46.924;7.114;2023-04-06T03:49:12;6.78;;;4.20;;
22531;SDS011;11432;46.924;7.114;2023-04-06T03:51:38;6.00;;;3.90;;
22531;SDS011;11432;46.924;7.114;2023-04-06T03:54:03;5.38;;;4.10;;
22531;SDS011;11432;46.924;7.114;2023-04-06T03:56:29;6.78;;;3.90;;
22531;SDS011;11432;46.924;7.114;2023-04-06T03:58:55;7.18;;;4.35;;
22531;SDS011;11432;46.924;7.114;2023-04-06T04:01:21;5.82;;;3.75;;
22531;SDS011;11432;46.924;7.114;2023-04-06T04:03:46;6.10;;;3.97;;
22531;SDS011;11432;46.924;7.114;2023-04-06T04:06:12;5.75;;;4.15;;
22531;SDS011;11432;46.924;7.114;2023-04-06T04:08:38;7.20;;;3.95;;
22531;SDS011;11432;46.924;7.114;2023-04-06T04:11:03;6.00;;;3.92;;
22531;SDS011;11432;46.924;7.114;2023-04-06T04:13:29;6.18;;;3.90;;
22531;SDS011;11432;46.924;7.114;2023-04-06T04:15:55;5.53;;;3.90;;
22531;SDS011;11432;46.924;7.114;2023-04-06T04:18:21;5.82;;;4.00;;
22531;SDS011;11432;46.924;7.114;2023-04-06T04:20:47;5.25;;;3.45;;
22531;SDS011;11432;46.924;7.114;2023-04-06T04:23:12;7.07;;;4.18;;
22531;SDS011;11432;46.924;7.114;2023-04-06T04:25:38;5.65;;;4.10;;
22531;SDS011;11432;46.924;7.114;2023-04-06T04:28:03;5.95;;;3.95;;
22531;SDS011;11432;46.924;7.114;2023-04-06T04:30:29;6.53;;;3.60;;
22531;SDS011;11432;46.924;7.114;2023-04-06T04:32:55;5.07;;;3.92;;
22531;SDS011;11432;46.924;7.114;2023-04-06T04:35:21;5.93;;;3.83;;
22531;SDS011;11432;46.924;7.114;2023-04-06T04:37:46;7.13;;;4.18;;
22531;SDS011;11432;46.924;7.114;2023-04-06T04:40:12;5.53;;;3.60;;
22531;SDS011;11432;46.924;7.114;2023-04-06T04:42:38;6.63;;;3.72;;
22531;SDS011;11432;46.924;7.114;2023-04-06T04:45:04;7.35;;;4.00;;
22531;SDS011;11432;46.924;7.114;2023-04-06T04:47:30;5.88;;;3.70;;
22531;SDS011;11432;46.924;7.114;2023-04-06T04:49:56;5.88;;;4.13;;
22531;SDS011;11432;46.924;7.114;2023-04-06T04:52:22;6.70;;;4.10;;
22531;SDS011;11432;46.924;7.114;2023-04-06T04:54:47;6.03;;;3.92;;
22531;SDS011;11432;46.924;7.114;2023-04-06T04:57:13;6.43;;;4.50;;
22531;SDS011;11432;46.924;7.114;2023-04-06T04:59:39;6.32;;;3.92;;
22531;SDS011;11432;46.924;7.114;2023-04-06T05:02:04;5.38;;;3.83;;
22531;SDS011;11432;46.924;7.114;2023-04-06T05:04:30;4.72;;;3.60;;
22531;SDS011;11432;46.924;7.114;2023-04-06T05:07:03;6.65;;;4.45;;
22531;SDS011;11432;46.924;7.114;2023-04-06T05:09:32;7.18;;;3.90;;
22531;SDS011;11432;46.924;7.114;2023-04-06T05:11:58;5.55;;;4.20;;
22531;SDS011;11432;46.924;7.114;2023-04-06T05:14:24;7.32;;;4.07;;
22531;SDS011;11432;46.924;7.114;2023-04-06T05:16:50;6.43;;;4.18;;
22531;SDS011;11432;46.924;7.114;2023-04-06T05:19:16;5.82;;;3.88;;
22531;SDS011;11432;46.924;7.114;2023-04-06T05:21:42;6.80;;;4.50;;
22531;SDS011;11432;46.924;7.114;2023-04-06T05:24:08;7.18;;;4.47;;
22531;SDS011;11432;46.924;7.114;2023-04-06T05:26:33;7.13;;;4.25;;
22531;SDS011;11432;46.924;7.114;2023-04-06T05:28:59;5.15;;;3.95;;
22531;SDS011;11432;46.924;7.114;2023-04-06T05:31:25;6.63;;;4.10;;
22531;SDS011;11432;46.924;7.114;2023-04-06T05:33:51;7.60;;;4.15;;
22531;SDS011;11432;46.924;7.114;2023-04-06T05:36:17;7.72;;;4.43;;
22531;SDS011;11432;46.924;7.114;2023-04-06T05:38:42;8.65;;;4.45;;
22531;SDS011;11432;46.924;7.114;2023-04-06T05:41:08;7.20;;;4.55;;
22531;SDS011;11432;46.924;7.114;2023-04-06T05:43:34;8.98;;;4.75;;
22531;SDS011;11432;46.924;7.114;2023-04-06T05:46:00;8.77;;;5.10;;
22531;SDS011;11432;46.924;7.114;2023-04-06T05:48:25;7.53;;;5.05;;
22531;SDS011;11432;46.924;7.114;2023-04-06T05:50:51;7.15;;;4.45;;
22531;SDS011;11432;46.924;7.114;2023-04-06T05:53:17;7.68;;;4.68;;
22531;SDS011;11432;46.924;7.114;2023-04-06T05:55:42;7.63;;;4.90;;
22531;SDS011;11432;46.924;7.114;2023-04-06T05:58:08;8.13;;;4.75;;
22531;SDS011;11432;46.924;7.114;2023-04-06T06:00:34;7.70;;;4.80;;
22531;SDS011;11432;46.924;7.114;2023-04-06T06:03:01;9.02;;;4.40;;
22531;SDS011;11432;46.924;7.114;2023-04-06T06:05:29;8.68;;;4.93;;
22531;SDS011;11432;46.924;7.114;2023-04-06T06:07:55;7.03;;;4.47;;
22531;SDS011;11432;46.924;7.114;2023-04-06T06:10:20;7.60;;;4.93;;
22531;SDS011;11432;46.924;7.114;2023-04-06T06:12:46;6.30;;;4.07;;
22531;SDS011;11432;46.924;7.114;2023-04-06T06:15:12;5.93;;;4.03;;
22531;SDS011;11432;46.924;7.114;2023-04-06T06:17:37;8.63;;;4.40;;
22531;SDS011;11432;46.924;7.114;2023-04-06T06:20:04;7.20;;;3.75;;
22531;SDS011;11432;46.924;7.114;2023-04-06T06:22:33;7.05;;;4.32;;
22531;SDS011;11432;46.924;7.114;2023-04-06T06:24:59;8.10;;;4.32;;
22531;SDS011;11432;46.924;7.114;2023-04-06T06:27:25;7.30;;;4.70;;
22531;SDS011;11432;46.924;7.114;2023-04-06T06:29:51;6.78;;;4.47;;
22531;SDS011;11432;46.924;7.114;2023-04-06T06:32:17;6.68;;;4.50;;
22531;SDS011;11432;46.924;7.114;2023-04-06T06:34:43;7.10;;;4.00;;
22531;SDS011;11432;46.924;7.114;2023-04-06T06:37:08;5.95;;;4.10;;
22531;SDS011;11432;46.924;7.114;2023-04-06T06:39:34;7.35;;;4.30;;
22531;SDS011;11432;46.924;7.114;2023-04-06T06:42:00;7.43;;;4.50;;
22531;SDS011;11432;46.924;7.114;2023-04-06T06:44:26;10.85;;;4.50;;
22531;SDS011;11432;46.924;7.114;2023-04-06T06:46:52;7.32;;;4.40;;
22531;SDS011;11432;46.924;7.114;2023-04-06T06:49:18;6.95;;;4.57;;
22531;SDS011;11432;46.924;7.114;2023-04-06T06:51:44;6.75;;;4.60;;
22531;SDS011;11432;46.924;7.114;2023-04-06T06:54:11;6.68;;;4.40;;
22531;SDS011;11432;46.924;7.114;2023-04-06T06:56:37;9.60;;;4.68;;
22531;SDS011;11432;46.924;7.114;2023-04-06T06:59:04;7.88;;;4.10;;
22531;SDS011;11432;46.924;7.114;2023-04-06T07:01:31;8.98;;;4.75;;
22531;SDS011;11432;46.924;7.114;2023-04-06T07:03:58;8.07;;;4.80;;
22531;SDS011;11432;46.924;7.114;2023-04-06T07:06:24;7.95;;;4.53;;
22531;SDS011;11432;46.924;7.114;2023-04-06T07:08:49;7.40;;;4.85;;
22531;SDS011;11432;46.924;7.114;2023-04-06T07:11:15;8.75;;;4.65;;
22531;SDS011;11432;46.924;7.114;2023-04-06T07:13:41;7.88;;;4.95;;
22531;SDS011;11432;46.924;7.114;2023-04-06T07:16:08;7.13;;;4.63;;
22531;SDS011;11432;46.924;7.114;2023-04-06T07:18:34;7.00;;;4.55;;
22531;SDS011;11432;46.924;7.114;2023-04-06T07:20:59;6.88;;;4.82;;
22531;SDS011;11432;46.924;7.114;2023-04-06T07:23:25;6.95;;;4.53;;
22531;SDS011;11432;46.924;7.114;2023-04-06T07:25:51;8.95;;;4.50;;
22531;SDS011;11432;46.924;7.114;2023-04-06T07:28:18;7.80;;;4.97;;
22531;SDS011;11432;46.924;7.114;2023-04-06T07:30:44;7.40;;;4.68;;
22531;SDS011;11432;46.924;7.114;2023-04-06T07:33:10;8.43;;;4.72;;
22531;SDS011;11432;46.924;7.114;2023-04-06T07:35:36;6.93;;;4.85;;
22531;SDS011;11432;46.924;7.114;2023-04-06T07:38:02;5.82;;;4.20;;
22531;SDS011;11432;46.924;7.114;2023-04-06T07:40:27;8.98;;;4.65;;
22531;SDS011;11432;46.924;7.114;2023-04-06T07:42:53;11.20;;;4.68;;
22531;SDS011;11432;46.924;7.114;2023-04-06T07:45:19;7.45;;;4.70;;
22531;SDS011;11432;46.924;7.114;2023-04-06T07:47:45;8.57;;;4.55;;
22531;SDS011;11432;46.924;7.114;2023-04-06T07:50:11;7.43;;;4.22;;
22531;SDS011;11432;46.924;7.114;2023-04-06T07:52:36;6.82;;;4.50;;
22531;SDS011;11432;46.924;7.114;2023-04-06T07:55:03;7.80;;;4.47;;
22531;SDS011;11432;46.924;7.114;2023-04-06T07:57:29;6.78;;;4.63;;
22531;SDS011;11432;46.924;7.114;2023-04-06T07:59:55;6.30;;;4.30;;
22531;SDS011;11432;46.924;7.114;2023-04-06T08:02:20;7.18;;;4.57;;
22531;SDS011;11432;46.924;7.114;2023-04-06T08:04:47;6.97;;;4.57;;
22531;SDS011;11432;46.924;7.114;2023-04-06T08:07:13;7.50;;;4.43;;
22531;SDS011;11432;46.924;7.114;2023-04-06T08:09:38;6.20;;;4.10;;
22531;SDS011;11432;46.924;7.114;2023-04-06T08:12:04;6.85;;;4.95;;
22531;SDS011;11432;46.924;7.114;2023-04-06T08:14:30;6.22;;;4.28;;
22531;SDS011;11432;46.924;7.114;2023-04-06T08:16:56;8.70;;;4.80;;
22531;SDS011;11432;46.924;7.114;2023-04-06T08:19:22;10.38;;;4.70;;
22531;SDS011;11432;46.924;7.114;2023-04-06T08:21:48;7.55;;;4.57;;
22531;SDS011;11432;46.924;7.114;2023-04-06T08:24:16;5.90;;;4.25;;
22531;SDS011;11432;46.924;7.114;2023-04-06T08:26:42;7.40;;;4.47;;
22531;SDS011;11432;46.924;7.114;2023-04-06T08:29:08;7.05;;;4.30;;
22531;SDS011;11432;46.924;7.114;2023-04-06T08:31:34;6.57;;;4.07;;
22531;SDS011;11432;46.924;7.114;2023-04-06T08:34:01;5.88;;;4.03;;
22531;SDS011;11432;46.924;7.114;2023-04-06T08:36:27;8.55;;;4.25;;
22531;SDS011;11432;46.924;7.114;2023-04-06T08:38:53;6.97;;;4.40;;
22531;SDS011;11432;46.924;7.114;2023-04-06T08:41:19;7.85;;;4.25;;
22531;SDS011;11432;46.924;7.114;2023-04-06T08:43:49;8.65;;;5.07;;
22531;SDS011;11432;46.924;7.114;2023-04-06T08:46:15;6.88;;;3.92;;
22531;SDS011;11432;46.924;7.114;2023-04-06T08:48:42;6.45;;;4.65;;
22531;SDS011;11432;46.924;7.114;2023-04-06T08:51:08;7.28;;;4.88;;
22531;SDS011;11432;46.924;7.114;2023-04-06T08:55:33;6.22;;;4.47;;
22531;SDS011;11432;46.924;7.114;2023-04-06T08:57:59;6.30;;;3.85;;
22531;SDS011;11432;46.924;7.114;2023-04-06T09:00:25;10.85;;;5.22;;
22531;SDS011;11432;46.924;7.114;2023-04-06T09:02:51;6.20;;;4.50;;
22531;SDS011;11432;46.924;7.114;2023-04-06T09:05:20;8.00;;;4.70;;
22531;SDS011;11432;46.924;7.114;2023-04-06T09:07:48;6.40;;;4.50;;
22531;SDS011;11432;46.924;7.114;2023-04-06T09:10:14;6.45;;;4.70;;
22531;SDS011;11432;46.924;7.114;2023-04-06T09:12:42;6.20;;;4.50;;
22531;SDS011;11432;46.924;7.114;2023-04-06T09:15:16;7.53;;;4.50;;
22531;SDS011;11432;46.924;7.114;2023-04-06T09:17:46;8.75;;;4.80;;
22531;SDS011;11432;46.924;7.114;2023-04-06T09:20:12;7.10;;;4.60;;
22531;SDS011;11432;46.924;7.114;2023-04-06T09:22:38;8.20;;;4.53;;
22531;SDS011;11432;46.924;7.114;2023-04-06T09:25:05;7.50;;;4.40;;
22531;SDS011;11432;46.924;7.114;2023-04-06T09:27:37;7.60;;;5.10;;
22531;SDS011;11432;46.924;7.114;2023-04-06T09:30:04;8.48;;;4.95;;
22531;SDS011;11432;46.924;7.114;2023-04-06T09:32:32;6.83;;;4.53;;
22531;SDS011;11432;46.924;7.114;2023-04-06T09:35:08;6.75;;;4.80;;
22531;SDS011;11432;46.924;7.114;2023-04-06T09:37:34;7.85;;;4.75;;
22531;SDS011;11432;46.924;7.114;2023-04-06T09:40:06;10.10;;;5.85;;
22531;SDS011;11432;46.924;7.114;2023-04-06T09:42:32;7.05;;;4.65;;
22531;SDS011;11432;46.924;7.114;2023-04-06T09:44:59;10.15;;;5.05;;
22531;SDS011;11432;46.924;7.114;2023-04-06T09:47:28;7.80;;;4.25;;
22531;SDS011;11432;46.924;7.114;2023-04-06T09:49:56;5.95;;;4.70;;
22531;SDS011;11432;46.924;7.114;2023-04-06T09:52:27;7.53;;;5.05;;
22531;SDS011;11432;46.924;7.114;2023-04-06T09:55:17;7.78;;;5.07;;
22531;SDS011;11432;46.924;7.114;2023-04-06T09:58:07;6.57;;;4.82;;
22531;SDS011;11432;46.924;7.114;2023-04-06T10:00:45;7.25;;;4.93;;
22531;SDS011;11432;46.924;7.114;2023-04-06T10:06:21;7.57;;;5.15;;
22531;SDS011;11432;46.924;7.114;2023-04-06T10:08:49;6.75;;;5.13;;
22531;SDS011;11432;46.924;7.114;2023-04-06T10:11:16;6.88;;;4.57;;
22531;SDS011;11432;46.924;7.114;2023-04-06T10:13:43;8.75;;;4.90;;
22531;SDS011;11432;46.924;7.114;2023-04-06T10:16:12;7.22;;;4.22;;
22531;SDS011;11432;46.924;7.114;2023-04-06T10:18:39;6.90;;;4.78;;
22531;SDS011;11432;46.924;7.114;2023-04-06T10:21:11;6.47;;;4.90;;
22531;SDS011;11432;46.924;7.114;2023-04-06T10:23:54;7.03;;;4.70;;
22531;SDS011;11432;46.924;7.114;2023-04-06T10:26:26;6.55;;;4.65;;
22531;SDS011;11432;46.924;7.114;2023-04-06T10:28:52;8.00;;;4.85;;
22531;SDS011;11432;46.924;7.114;2023-04-06T10:31:25;7.78;;;5.55;;
22531;SDS011;11432;46.924;7.114;2023-04-06T10:33:55;8.13;;;5.05;;
22531;SDS011;11432;46.924;7.114;2023-04-06T10:36:23;6.97;;;4.85;;
22531;SDS011;11432;46.924;7.114;2023-04-06T10:38:56;7.72;;;5.47;;
22531;SDS011;11432;46.924;7.114;2023-04-06T10:41:23;8.02;;;5.13;;
22531;SDS011;11432;46.924;7.114;2023-04-06T10:43:56;8.27;;;4.93;;
22531;SDS011;11432;46.924;7.114;2023-04-06T10:46:26;7.38;;;5.10;;
22531;SDS011;11432;46.924;7.114;2023-04-06T10:48:54;6.05;;;4.85;;
22531;SDS011;11432;46.924;7.114;2023-04-06T10:51:23;7.10;;;4.93;;
22531;SDS011;11432;46.924;7.114;2023-04-06T10:53:54;8.50;;;5.43;;
22531;SDS011;11432;46.924;7.114;2023-04-06T10:56:24;7.35;;;5.05;;
22531;SDS011;11432;46.924;7.114;2023-04-06T10:58:53;8.05;;;4.90;;
22531;SDS011;11432;46.924;7.114;2023-04-06T11:01:23;8.73;;;5.72;;
22531;SDS011;11432;46.924;7.114;2023-04-06T11:03:55;7.10;;;4.80;;
22531;SDS011;11432;46.924;7.114;2023-04-06T11:06:27;7.35;;;4.63;;
22531;SDS011;11432;46.924;7.114;2023-04-06T11:08:56;6.97;;;4.88;;
22531;SDS011;11432;46.924;7.114;2023-04-06T11:11:23;9.63;;;3.63;;
22531;SDS011;11432;46.924;7.114;2023-04-06T11:14:00;6.78;;;3.97;;
22531;SDS011;11432;46.924;7.114;2023-04-06T11:16:27;7.10;;;4.22;;
22531;SDS011;11432;46.924;7.114;2023-04-06T11:18:57;6.15;;;3.78;;
22531;SDS011;11432;46.924;7.114;2023-04-06T11:24:08;7.82;;;3.85;;
22531;SDS011;11432;46.924;7.114;2023-04-06T11:26:46;6.22;;;4.07;;
22531;SDS011;11432;46.924;7.114;2023-04-06T11:29:13;7.07;;;4.15;;
22531;SDS011;11432;46.924;7.114;2023-04-06T11:31:50;6.55;;;3.15;;
22531;SDS011;11432;46.924;7.114;2023-04-06T11:34:18;5.70;;;3.55;;
22531;SDS011;11432;46.924;7.114;2023-04-06T11:36:57;6.18;;;3.80;;
22531;SDS011;11432;46.924;7.114;2023-04-06T11:39:24;4.93;;;2.90;;
22531;SDS011;11432;46.924;7.114;2023-04-06T11:41:51;7.40;;;3.95;;
22531;SDS011;11432;46.924;7.114;2023-04-06T11:44:34;4.50;;;2.67;;
22531;SDS011;11432;46.924;7.114;2023-04-06T11:47:00;5.30;;;3.50;;
22531;SDS011;11432;46.924;7.114;2023-04-06T11:49:28;5.43;;;3.70;;
22531;SDS011;11432;46.924;7.114;2023-04-06T11:51:55;5.03;;;2.78;;
22531;SDS011;11432;46.924;7.114;2023-04-06T11:54:33;6.13;;;3.33;;
22531;SDS011;11432;46.924;7.114;2023-04-06T11:59:26;6.38;;;3.60;;
22531;SDS011;11432;46.924;7.114;2023-04-06T12:01:52;6.57;;;3.25;;
22531;SDS011;11432;46.924;7.114;2023-04-06T12:04:19;6.65;;;3.28;;
22531;SDS011;11432;46.924;7.114;2023-04-06T12:06:45;4.57;;;2.70;;
22531;SDS011;11432;46.924;7.114;2023-04-06T12:09:10;5.82;;;2.72;;
22531;SDS011;11432;46.924;7.114;2023-04-06T12:11:36;7.20;;;3.20;;
22531;SDS011;11432;46.924;7.114;2023-04-06T12:14:02;7.57;;;2.90;;
22531;SDS011;11432;46.924;7.114;2023-04-06T12:16:30;5.68;;;2.75;;
22531;SDS011;11432;46.924;7.114;2023-04-06T12:18:56;5.35;;;3.08;;
22531;SDS011;11432;46.924;7.114;2023-04-06T12:21:21;4.28;;;2.30;;
22531;SDS011;11432;46.924;7.114;2023-04-06T12:23:47;4.50;;;2.92;;
22531;SDS011;11432;46.924;7.114;2023-04-06T12:26:13;5.55;;;2.92;;
22531;SDS011;11432;46.924;7.114;2023-04-06T12:28:38;4.78;;;2.70;;
22531;SDS011;11432;46.924;7.114;2023-04-06T12:31:04;4.95;;;2.25;;
22531;SDS011;11432;46.924;7.114;2023-04-06T12:33:30;5.53;;;2.80;;
22531;SDS011;11432;46.924;7.114;2023-04-06T12:35:55;6.30;;;3.45;;
22531;SDS011;11432;46.924;7.114;2023-04-06T12:38:21;4.22;;;2.47;;
22531;SDS011;11432;46.924;7.114;2023-04-06T12:40:47;5.95;;;3.13;;
22531;SDS011;11432;46.924;7.114;2023-04-06T12:43:13;6.70;;;2.97;;
22531;SDS011;11432;46.924;7.114;2023-04-06T12:45:39;5.07;;;2.95;;
22531;SDS011;11432;46.924;7.114;2023-04-06T12:48:05;6.63;;;2.95;;
22531;SDS011;11432;46.924;7.114;2023-04-06T12:50:31;5.53;;;3.28;;
22531;SDS011;11432;46.924;7.114;2023-04-06T12:52:57;4.20;;;2.25;;
22531;SDS011;11432;46.924;7.114;2023-04-06T12:55:23;4.65;;;3.00;;
22531;SDS011;11432;46.924;7.114;2023-04-06T12:57:49;5.18;;;3.20;;
22531;SDS011;11432;46.924;7.114;2023-04-06T13:00:15;4.07;;;2.70;;
22531;SDS011;11432;46.924;7.114;2023-04-06T13:02:41;4.28;;;2.35;;
22531;SDS011;11432;46.924;7.114;2023-04-06T13:05:11;3.63;;;2.20;;
22531;SDS011;11432;46.924;7.114;2023-04-06T13:07:38;5.57;;;2.97;;
22531;SDS011;11432;46.924;7.114;2023-04-06T13:10:04;4.20;;;2.60;;
22531;SDS011;11432;46.924;7.114;2023-04-06T13:12:30;4.53;;;2.47;;
22531;SDS011;11432;46.924;7.114;2023-04-06T13:14:55;3.88;;;2.42;;
22531;SDS011;11432;46.924;7.114;2023-04-06T13:17:21;6.18;;;2.90;;
22531;SDS011;11432;46.924;7.114;2023-04-06T13:19:47;5.32;;;3.00;;
22531;SDS011;11432;46.924;7.114;2023-04-06T13:22:13;6.45;;;3.58;;
22531;SDS011;11432;46.924;7.114;2023-04-06T13:24:38;4.78;;;2.92;;
22531;SDS011;11432;46.924;7.114;2023-04-06T13:27:04;5.45;;;2.90;;
22531;SDS011;11432;46.924;7.114;2023-04-06T13:29:30;5.60;;;3.25;;
22531;SDS011;11432;46.924;7.114;2023-04-06T13:31:56;4.15;;;2.60;;
22531;SDS011;11432;46.924;7.114;2023-04-06T13:34:21;5.43;;;2.72;;
22531;SDS011;11432;46.924;7.114;2023-04-06T13:36:47;6.90;;;3.13;;
22531;SDS011;11432;46.924;7.114;2023-04-06T13:39:12;8.95;;;3.38;;
22531;SDS011;11432;46.924;7.114;2023-04-06T13:41:38;4.32;;;2.45;;
22531;SDS011;11432;46.924;7.114;2023-04-06T13:44:05;6.10;;;3.08;;
22531;SDS011;11432;46.924;7.114;2023-04-06T13:46:31;6.30;;;2.92;;
22531;SDS011;11432;46.924;7.114;2023-04-06T13:48:57;5.03;;;2.92;;
22531;SDS011;11432;46.924;7.114;2023-04-06T13:51:22;5.57;;;2.83;;
22531;SDS011;11432;46.924;7.114;2023-04-06T13:53:48;5.50;;;3.13;;
22531;SDS011;11432;46.924;7.114;2023-04-06T13:56:17;5.40;;;2.40;;
22531;SDS011;11432;46.924;7.114;2023-04-06T13:58:43;4.63;;;2.88;;
22531;SDS011;11432;46.924;7.114;2023-04-06T14:01:08;5.82;;;2.97;;
22531;SDS011;11432;46.924;7.114;2023-04-06T14:03:34;5.82;;;3.03;;
22531;SDS011;11432;46.924;7.114;2023-04-06T14:06:01;4.55;;;3.05;;
22531;SDS011;11432;46.924;7.114;2023-04-06T14:08:34;7.07;;;2.55;;
22531;SDS011;11432;46.924;7.114;2023-04-06T14:10:59;5.95;;;2.50;;
22531;SDS011;11432;46.924;7.114;2023-04-06T14:13:25;4.72;;;2.63;;
22531;SDS011;11432;46.924;7.114;2023-04-06T14:15:54;5.32;;;2.83;;
22531;SDS011;11432;46.924;7.114;2023-04-06T14:18:20;4.78;;;2.90;;
22531;SDS011;11432;46.924;7.114;2023-04-06T14:20:57;5.32;;;2.60;;
22531;SDS011;11432;46.924;7.114;2023-04-06T14:23:23;3.60;;;2.28;;
22531;SDS011;11432;46.924;7.114;2023-04-06T14:26:00;5.22;;;2.92;;
22531;SDS011;11432;46.924;7.114;2023-04-06T14:28:30;7.70;;;2.97;;
22531;SDS011;11432;46.924;7.114;2023-04-06T14:31:00;4.32;;;2.70;;
22531;SDS011;11432;46.924;7.114;2023-04-06T14:33:29;6.65;;;2.80;;
22531;SDS011;11432;46.924;7.114;2023-04-06T14:35:55;5.18;;;2.67;;
22531;SDS011;11432;46.924;7.114;2023-04-06T14:38:21;5.28;;;2.85;;
22531;SDS011;11432;46.924;7.114;2023-04-06T14:40:47;4.97;;;2.40;;
22531;SDS011;11432;46.924;7.114;2023-04-06T14:43:13;8.82;;;2.45;;
22531;SDS011;11432;46.924;7.114;2023-04-06T14:45:38;4.35;;;2.20;;
22531;SDS011;11432;46.924;7.114;2023-04-06T14:48:04;4.57;;;2.70;;
22531;SDS011;11432;46.924;7.114;2023-04-06T14:50:37;3.97;;;2.20;;
22531;SDS011;11432;46.924;7.114;2023-04-06T14:53:03;4.70;;;2.65;;
22531;SDS011;11432;46.924;7.114;2023-04-06T14:55:29;5.72;;;2.72;;